createdAt,value
2022-08-08T00:01:10.525Z,27.88
2022-08-08T00:03:47.287Z,28.11
2022-08-08T00:06:28.378Z,27.93
2022-08-08T00:09:07.996Z,28.06
2022-08-08T00:11:46.931Z,28.06
2022-08-08T00:14:48.048Z,28.07
2022-08-08T00:17:58.242Z,28.14
2022-08-08T00:20:26.511Z,28.17
2022-08-08T00:22:57.775Z,28.59
2022-08-08T00:25:39.127Z,28.56
2022-08-08T00:28:35.928Z,28.74
2022-08-08T00:32:28.663Z,28.47
2022-08-08T00:34:20.033Z,28.29
2022-08-08T00:36:54.984Z,28.49
2022-08-08T00:41:07.708Z,28.62
2022-08-08T00:42:48.882Z,28.68
2022-08-08T00:45:42.425Z,28.93
2022-08-08T00:48:30.161Z,28.92
2022-08-08T00:51:38.206Z,29.09
2022-08-08T00:54:46.994Z,28.82
2022-08-08T00:57:56.992Z,28.97
2022-08-08T01:00:27.842Z,29.03
2022-08-08T01:03:58.026Z,28.91
2022-08-08T01:06:33.099Z,29.16
2022-08-08T01:09:35.433Z,29.18
2022-08-08T01:12:50.742Z,29.49
2022-08-08T01:15:44.141Z,29.48
2022-08-08T01:18:59.125Z,29.64
2022-08-08T01:22:07.195Z,30.02
2022-08-08T01:25:17.628Z,30.20
2022-08-08T01:28:09.451Z,30.28
2022-08-08T01:32:02.963Z,30.28
2022-08-08T01:34:30.993Z,30.39
2022-08-08T01:37:58.205Z,30.03
2022-08-08T01:40:30.814Z,30.25
2022-08-08T01:43:07.244Z,30.14
2022-08-08T01:45:54.535Z,30.30
2022-08-08T01:48:34.051Z,30.96
2022-08-08T01:52:04.484Z,30.95
2022-08-08T01:55:45.427Z,30.39
2022-08-08T01:57:19.402Z,30.70
2022-08-08T02:00:02.263Z,30.59
2022-08-08T02:02:41.391Z,30.66
2022-08-08T02:05:23.159Z,30.58
2022-08-08T02:08:03.888Z,30.53
2022-08-08T02:10:46.898Z,31.19
2022-08-08T02:13:54.748Z,31.60
2022-08-08T02:16:21.331Z,31.55
2022-08-08T02:18:58.898Z,31.87
2022-08-08T02:21:42.670Z,31.65
2022-08-08T02:24:17.055Z,31.71
2022-08-08T02:26:58.007Z,31.82
2022-08-08T02:29:46.939Z,31.87
2022-08-08T02:32:44.064Z,32.03
2022-08-08T02:36:04.525Z,32.01
2022-08-08T02:38:50.737Z,31.73
2022-08-08T02:42:04.693Z,31.83
2022-08-08T02:44:59.299Z,32.05
2022-08-08T02:48:05.109Z,32.41
2022-08-08T02:50:55.686Z,32.47
2022-08-08T02:53:33.588Z,32.47
2022-08-08T02:56:33.049Z,32.07
2022-08-08T03:00:01.631Z,32.25
2022-08-08T03:02:55.581Z,32.38
2022-08-08T03:05:45.248Z,32.59
2022-08-08T03:08:51.727Z,32.39
2022-08-08T03:12:02.802Z,32.73
2022-08-08T03:15:58.109Z,33.06
2022-08-08T03:17:59.808Z,34.04
2022-08-08T03:20:51.667Z,33.63
2022-08-08T03:23:24.607Z,35.36
2022-08-08T03:26:06.800Z,35.59
2022-08-08T03:28:38.675Z,36.26
2022-08-08T03:31:28.428Z,35.71
2022-08-08T03:34:04.897Z,33.96
2022-08-08T03:36:34.636Z,33.74
2022-08-08T03:39:15.232Z,33.47
2022-08-08T03:42:12.931Z,33.38
2022-08-08T03:44:38.757Z,33.29
2022-08-08T03:47:19.706Z,35.07
2022-08-08T03:50:00.894Z,34.24
2022-08-08T03:52:34.111Z,35.35
2022-08-08T03:55:55.216Z,34.49
2022-08-08T03:58:31.721Z,35.01
2022-08-08T04:01:01.676Z,36.06
2022-08-08T04:03:59.155Z,36.59
2022-08-08T04:06:29.826Z,35.91
2022-08-08T04:09:10.389Z,34.72
2022-08-08T04:11:48.539Z,34.54
2022-08-08T04:14:34.806Z,34.63
2022-08-08T04:17:22.813Z,34.58
2022-08-08T04:19:56.550Z,34.69
2022-08-08T04:22:29.426Z,34.24
2022-08-08T04:24:59.444Z,34.26
2022-08-08T04:28:03.326Z,34.27
2022-08-08T04:30:23.892Z,34.56
2022-08-08T04:32:53.449Z,34.71
2022-08-08T04:35:23.297Z,34.76
2022-08-08T04:37:53.200Z,34.80
2022-08-08T04:40:25.265Z,34.35
2022-08-08T04:43:01.575Z,34.87
2022-08-08T04:45:31.462Z,34.72
2022-08-08T04:48:03.608Z,34.95
2022-08-08T04:50:37.802Z,34.51
2022-08-08T04:53:14.311Z,34.62
2022-08-08T04:55:57.879Z,34.25
2022-08-08T04:58:29.901Z,34.27
2022-08-08T05:00:59.358Z,34.66
2022-08-08T05:04:09.527Z,34.07
2022-08-08T05:06:25.784Z,34.24
2022-08-08T05:09:02.707Z,34.38
2022-08-08T05:11:38.927Z,33.74
2022-08-08T05:14:12.893Z,33.90
2022-08-08T05:16:52.483Z,33.96
2022-08-08T05:20:11.366Z,33.89
2022-08-08T05:22:19.226Z,33.56
2022-08-08T05:24:49.481Z,33.48
2022-08-08T05:27:19.255Z,33.18
2022-08-08T05:29:52.267Z,32.92
2022-08-08T05:32:28.052Z,33.07
2022-08-08T05:35:05.142Z,32.45
2022-08-08T05:37:52.278Z,32.67
2022-08-08T05:40:28.432Z,32.55
2022-08-08T05:43:02.092Z,32.42
2022-08-08T05:45:42.859Z,32.43
2022-08-08T05:48:28.495Z,32.04
2022-08-08T05:51:14.596Z,31.94
2022-08-08T05:54:24.107Z,31.48
2022-08-08T05:56:34.937Z,30.99
2022-08-08T05:59:12.674Z,31.41
2022-08-08T06:01:55.443Z,30.82
2022-08-08T06:04:29.621Z,30.18
2022-08-08T06:07:01.899Z,30.33
2022-08-08T06:10:00.532Z,29.85
2022-08-08T06:12:29.612Z,29.60
2022-08-08T06:15:01.100Z,29.03
2022-08-08T06:17:51.564Z,29.27
2022-08-08T06:20:26.198Z,29.05
2022-08-08T06:22:56.338Z,28.86
2022-08-08T06:25:33.119Z,28.30
2022-08-08T06:28:18.031Z,28.64
2022-08-08T06:30:49.785Z,28.31
2022-08-08T06:33:36.954Z,28.06
2022-08-08T06:36:12.046Z,28.25
2022-08-08T06:38:43.974Z,28.01
2022-08-08T06:41:15.443Z,27.62
2022-08-08T06:43:47.652Z,27.47
2022-08-08T06:46:29.991Z,27.39
2022-08-08T06:49:02.215Z,27.38
2022-08-08T06:51:49.068Z,26.88
2022-08-08T06:54:21.121Z,27.10
2022-08-08T06:56:53.031Z,27.04
2022-08-08T06:59:22.493Z,27.06
2022-08-08T07:02:26.610Z,26.79
2022-08-08T07:04:51.728Z,26.51
2022-08-08T07:07:26.105Z,26.16
2022-08-08T07:10:00.915Z,26.39
2022-08-08T07:12:33.310Z,25.16
2022-08-08T07:15:06.621Z,25.40
2022-08-08T07:18:01.877Z,25.52
2022-08-08T07:20:50.485Z,25.05
2022-08-08T07:23:23.483Z,24.91
2022-08-08T07:25:54.437Z,24.63
2022-08-08T07:28:31.453Z,24.18
2022-08-08T07:31:01.417Z,24.64
2022-08-08T07:33:37.890Z,23.83
2022-08-08T07:36:23.685Z,22.90
2022-08-08T07:38:53.919Z,23.42
2022-08-08T07:41:25.190Z,22.98
2022-08-08T07:43:54.851Z,23.12
2022-08-08T07:46:30.715Z,23.25
2022-08-08T07:49:00.622Z,23.35
2022-08-08T07:51:44.931Z,22.08
2022-08-08T07:54:27.150Z,22.98
2022-08-08T07:57:16.969Z,21.32
2022-08-08T07:59:51.277Z,21.73
2022-08-08T08:02:35.349Z,22.67
2022-08-08T08:05:15.014Z,22.88
2022-08-08T08:07:52.943Z,22.11
2022-08-08T08:10:30.575Z,22.00
2022-08-08T08:13:25.789Z,21.79
2022-08-08T08:16:12.656Z,21.38
2022-08-08T08:18:55.608Z,21.52
2022-08-08T08:21:44.038Z,21.91
2022-08-08T08:24:18.882Z,21.33
2022-08-08T08:26:54.847Z,21.50
2022-08-08T08:29:27.980Z,20.64
2022-08-08T08:32:03.267Z,20.27
2022-08-08T08:34:35.492Z,20.27
2022-08-08T08:37:08.362Z,20.85
2022-08-08T08:40:00.968Z,20.09
2022-08-08T08:42:35.644Z,20.38
2022-08-08T08:45:21.709Z,19.56
2022-08-08T08:47:54.723Z,19.81
2022-08-08T08:50:33.520Z,20.29
2022-08-08T08:53:54.438Z,20.10
2022-08-08T08:56:02.421Z,20.37
2022-08-08T08:58:35.496Z,20.32
2022-08-08T09:01:10.230Z,19.83
2022-08-08T09:03:47.884Z,19.98
2022-08-08T09:06:26.549Z,20.38
2022-08-08T09:08:57.583Z,20.67
2022-08-08T09:11:33.025Z,19.85
2022-08-08T09:14:03.217Z,20.16
2022-08-08T09:16:33.298Z,19.56
2022-08-08T09:19:02.738Z,19.51
2022-08-08T09:22:02.948Z,19.44
2022-08-08T09:24:22.239Z,19.93
2022-08-08T09:27:02.542Z,19.97
2022-08-08T09:29:34.169Z,19.75
2022-08-08T09:32:05.816Z,19.10
2022-08-08T09:34:42.166Z,18.77
2022-08-08T09:37:46.314Z,18.25
2022-08-08T09:40:11.791Z,17.73
2022-08-08T09:42:51.444Z,16.95
2022-08-08T09:45:54.875Z,16.16
2022-08-08T09:48:21.928Z,15.06
2022-08-08T09:50:56.708Z,14.50
2022-08-08T09:53:54.377Z,13.82
2022-08-08T09:56:24.938Z,14.28
2022-08-08T09:59:20.185Z,12.90
2022-08-08T10:01:59.120Z,11.91
2022-08-08T10:04:42.095Z,10.76
2022-08-08T10:07:15.718Z,10.59
2022-08-08T10:09:59.132Z,10.03
2022-08-08T10:12:38.616Z,9.96
2022-08-08T10:15:27.341Z,8.86
2022-08-08T10:18:09.057Z,8.38
2022-08-08T10:20:58.193Z,7.72
2022-08-08T10:23:55.598Z,6.68
2022-08-08T10:26:58.534Z,6.06
2022-08-08T10:29:23.178Z,6.20
2022-08-08T10:32:12.297Z,5.84
2022-08-08T10:34:46.330Z,5.42
2022-08-08T10:37:16.131Z,7.07
2022-08-08T10:39:54.706Z,7.55
2022-08-08T10:42:27.382Z,8.16
2022-08-08T10:45:02.707Z,8.44
2022-08-08T10:47:44.010Z,10.07
2022-08-08T10:50:18.273Z,11.19
2022-08-08T10:52:47.725Z,12.92
2022-08-08T10:55:40.918Z,13.03
2022-08-08T10:58:08.213Z,15.98
2022-08-08T11:00:53.205Z,16.59
2022-08-08T11:03:36.461Z,16.80
2022-08-08T11:06:06.245Z,17.61
2022-08-08T11:08:53.610Z,17.83
2022-08-08T11:11:32.026Z,17.80
2022-08-08T11:14:16.341Z,17.69
2022-08-08T11:16:47.933Z,18.08
2022-08-08T11:19:21.078Z,17.85
2022-08-08T11:21:55.604Z,18.28
2022-08-08T11:24:25.696Z,18.30
2022-08-08T11:26:57.166Z,18.81
2022-08-08T11:29:41.397Z,19.54
2022-08-08T11:32:16.862Z,19.07
2022-08-08T11:35:27.957Z,18.53
2022-08-08T11:38:43.485Z,18.50
2022-08-08T11:40:31.454Z,17.78
2022-08-08T11:43:01.147Z,17.35
2022-08-08T11:45:36.736Z,17.22
2022-08-08T11:48:20.273Z,16.34
2022-08-08T11:50:52.801Z,17.60
2022-08-08T11:53:24.218Z,17.33
2022-08-08T11:55:54.109Z,17.37
2022-08-08T11:58:34.880Z,17.43
2022-08-08T12:01:12.491Z,17.50
2022-08-08T12:03:48.213Z,18.10
2022-08-08T12:06:22.245Z,18.41
2022-08-08T12:08:53.792Z,18.80
2022-08-08T12:11:28.506Z,18.21
2022-08-08T12:14:05.826Z,18.39
2022-08-08T12:16:46.612Z,18.41
2022-08-08T12:19:31.206Z,19.18
2022-08-08T12:22:13.211Z,18.70
2022-08-08T12:24:53.907Z,19.11
2022-08-08T12:27:26.538Z,19.78
2022-08-08T12:29:59.007Z,19.85
2022-08-08T12:32:31.393Z,18.78
2022-08-08T12:35:16.885Z,18.84
2022-08-08T12:38:02.915Z,19.19
2022-08-08T12:40:54.083Z,18.89
2022-08-08T12:43:32.960Z,18.41
2022-08-08T12:46:26.424Z,17.90
2022-08-08T12:49:25.173Z,18.03
2022-08-08T12:51:58.876Z,17.65
2022-08-08T12:54:36.532Z,17.21
2022-08-08T12:57:17.695Z,16.78
2022-08-08T13:00:04.421Z,17.48
2022-08-08T13:02:37.030Z,17.83
2022-08-08T13:05:25.669Z,17.36
2022-08-08T13:08:03.951Z,18.50
2022-08-08T13:10:55.709Z,18.11
2022-08-08T13:13:35.005Z,17.96
2022-08-08T13:16:19.546Z,17.72
2022-08-08T13:18:56.970Z,17.82
2022-08-08T13:21:48.641Z,17.63
2022-08-08T13:24:19.068Z,18.06
2022-08-08T13:27:12.282Z,18.40
2022-08-08T13:29:51.068Z,18.17
2022-08-08T13:32:23.590Z,17.79
2022-08-08T13:34:55.687Z,18.29
2022-08-08T13:37:28.058Z,18.75
2022-08-08T13:40:17.969Z,18.54
2022-08-08T13:42:59.679Z,19.24
2022-08-08T13:45:30.893Z,18.77
2022-08-08T13:48:01.006Z,18.76
2022-08-08T13:50:38.335Z,18.75
2022-08-08T13:53:25.077Z,18.52
2022-08-08T13:56:01.543Z,19.34
2022-08-08T13:58:34.625Z,18.61
2022-08-08T14:01:13.850Z,18.97
2022-08-08T14:03:55.176Z,18.64
2022-08-08T14:06:32.866Z,18.51
2022-08-08T14:09:18.474Z,19.01
2022-08-08T14:11:54.429Z,18.08
2022-08-08T14:14:27.295Z,18.55
2022-08-08T14:16:57.281Z,18.63
2022-08-08T14:19:57.403Z,18.57
2022-08-08T14:22:25.804Z,18.55
2022-08-08T14:24:59.854Z,18.32
2022-08-08T14:27:30.823Z,18.43
2022-08-08T14:30:17.294Z,18.20
2022-08-08T14:32:53.129Z,18.15
2022-08-08T14:35:35.908Z,18.47
2022-08-08T14:38:33.064Z,17.99
2022-08-08T14:40:59.075Z,18.02
2022-08-08T14:44:02.577Z,18.57
2022-08-08T14:46:32.520Z,18.65
2022-08-08T14:49:09.377Z,18.59
2022-08-08T14:51:53.350Z,18.12
2022-08-08T14:54:29.343Z,17.93
2022-08-08T14:56:59.360Z,18.02
2022-08-08T14:59:44.732Z,17.41
2022-08-08T15:02:31.022Z,17.16
2022-08-08T15:05:10.680Z,16.41
2022-08-08T15:07:41.551Z,15.82
2022-08-08T15:10:13.050Z,15.78
2022-08-08T15:12:42.686Z,15.47
2022-08-08T15:15:18.822Z,15.86
2022-08-08T15:18:05.972Z,15.32
2022-08-08T15:20:35.553Z,15.70
2022-08-08T15:23:05.887Z,14.71
2022-08-08T15:25:35.352Z,14.40
2022-08-08T15:28:33.699Z,14.77
2022-08-08T15:31:00.865Z,14.60
2022-08-08T15:33:35.544Z,14.60
2022-08-08T15:36:08.682Z,15.03
2022-08-08T15:38:40.595Z,14.81
2022-08-08T15:41:24.601Z,14.97
2022-08-08T15:44:00.526Z,14.63
2022-08-08T15:46:34.811Z,14.48
2022-08-08T15:49:07.481Z,14.42
2022-08-08T15:51:39.414Z,14.70
2022-08-08T15:54:18.306Z,15.88
2022-08-08T15:56:48.496Z,15.81
2022-08-08T15:59:17.945Z,16.09
2022-08-08T16:01:59.762Z,15.93
2022-08-08T16:04:32.740Z,16.20
2022-08-08T16:07:02.276Z,15.98
2022-08-08T16:13:14.182Z,15.78
2022-08-08T16:13:20.429Z,16.23
2022-08-08T16:15:12.503Z,15.89
2022-08-08T16:18:06.341Z,15.53
2022-08-08T16:20:37.975Z,15.30
2022-08-08T16:23:11.632Z,15.74
2022-08-08T16:25:45.761Z,15.85
2022-08-08T16:28:32.637Z,16.26
2022-08-08T16:31:07.651Z,15.87
2022-08-08T16:33:38.678Z,15.63
2022-08-08T16:36:15.770Z,16.02
2022-08-08T16:38:53.566Z,15.63
2022-08-08T16:41:23.562Z,15.52
2022-08-08T16:43:53.691Z,16.01
2022-08-08T16:46:43.680Z,16.65
2022-08-08T16:49:14.194Z,16.24
2022-08-08T16:55:06.929Z,16.29
2022-08-08T16:55:07.217Z,16.93
2022-08-08T16:58:13.201Z,16.83
2022-08-08T17:00:21.473Z,16.96
2022-08-08T17:02:56.671Z,17.45
2022-08-08T17:05:31.304Z,17.10
2022-08-08T17:08:16.869Z,17.15
2022-08-08T17:10:57.489Z,16.70
2022-08-08T17:13:50.003Z,17.27
2022-08-08T17:16:22.295Z,16.96
2022-08-08T17:18:53.910Z,16.85
2022-08-08T17:21:26.073Z,16.46
2022-08-08T17:24:02.736Z,16.41
2022-08-08T17:26:33.126Z,16.01
2022-08-08T17:29:04.476Z,16.49
2022-08-08T17:31:44.243Z,16.68
2022-08-08T17:34:53.490Z,16.31
2022-08-08T17:37:06.689Z,15.80
2022-08-08T17:40:04.944Z,16.44
2022-08-08T17:42:32.716Z,16.11
2022-08-08T17:45:02.739Z,16.34
2022-08-08T17:47:40.256Z,16.49
2022-08-08T17:50:11.159Z,16.65
2022-08-08T17:52:43.103Z,16.78
2022-08-08T17:56:04.774Z,17.02
2022-08-08T17:58:05.190Z,17.38
2022-08-08T18:00:38.971Z,17.31
2022-08-08T18:03:13.096Z,17.41
2022-08-08T18:05:49.076Z,17.40
2022-08-08T18:08:24.901Z,17.68
2022-08-08T18:11:15.301Z,17.67
2022-08-08T18:13:46.417Z,18.06
2022-08-08T18:16:23.099Z,17.92
2022-08-08T18:18:56.641Z,17.95
2022-08-08T18:21:59.050Z,18.32
2022-08-08T18:24:18.944Z,17.84
2022-08-08T18:26:56.634Z,18.33
2022-08-08T18:29:33.167Z,18.36
2022-08-08T18:32:04.561Z,18.54
2022-08-08T18:34:35.090Z,18.81
2022-08-08T18:37:06.626Z,18.53
2022-08-08T18:39:37.849Z,18.95
2022-08-08T18:42:15.691Z,19.54
2022-08-08T18:44:54.863Z,19.66
2022-08-08T18:47:26.001Z,19.65
2022-08-08T18:50:00.365Z,21.45
2022-08-08T18:52:33.929Z,20.29
2022-08-08T18:55:10.209Z,20.41
2022-08-08T18:57:45.374Z,19.62
2022-08-08T19:00:20.123Z,20.02
2022-08-08T19:02:57.083Z,20.33
2022-08-08T19:05:34.006Z,20.28
2022-08-08T19:08:24.821Z,21.06
2022-08-08T19:10:58.883Z,20.84
2022-08-08T19:13:53.891Z,20.76
2022-08-08T19:16:23.618Z,20.94
2022-08-08T19:19:02.033Z,21.04
2022-08-08T19:21:33.297Z,21.27
2022-08-08T19:24:43.617Z,21.31
2022-08-08T19:27:08.761Z,21.49
2022-08-08T19:29:45.746Z,21.52
2022-08-08T19:32:19.637Z,21.82
2022-08-08T19:34:52.919Z,21.38
2022-08-08T19:37:42.725Z,21.50
2022-08-08T19:40:16.271Z,21.25
2022-08-08T19:42:46.173Z,21.87
2022-08-08T19:45:58.658Z,21.70
2022-08-08T19:48:28.779Z,21.95
2022-08-08T19:50:59.044Z,21.84
2022-08-08T19:53:53.536Z,21.95
2022-08-08T19:56:25.709Z,22.62
2022-08-08T19:59:08.129Z,23.78
2022-08-08T20:02:01.843Z,23.50
2022-08-08T20:04:30.327Z,23.52
2022-08-08T20:07:05.406Z,24.21
2022-08-08T20:09:55.888Z,24.85
2022-08-08T20:12:31.939Z,25.84
2022-08-08T20:15:15.072Z,25.65
2022-08-08T20:17:49.867Z,25.65
2022-08-08T20:20:22.212Z,25.98
2022-08-08T20:22:54.052Z,25.90
2022-08-08T20:25:29.780Z,25.80
2022-08-08T20:28:07.103Z,26.04
2022-08-08T20:30:56.111Z,26.33
2022-08-08T20:34:03.608Z,26.48
2022-08-08T20:36:22.308Z,26.63
2022-08-08T20:38:51.967Z,27.09
2022-08-08T20:41:21.410Z,27.28
2022-08-08T20:43:50.972Z,27.50
2022-08-08T20:46:25.639Z,27.35
2022-08-08T20:48:59.916Z,27.37
2022-08-08T20:51:32.443Z,27.75
2022-08-08T20:54:13.976Z,27.65
2022-08-08T20:57:17.153Z,27.79
2022-08-08T20:59:41.200Z,27.99
2022-08-08T21:02:12.441Z,28.18
2022-08-08T21:04:47.649Z,27.81
2022-08-08T21:07:31.231Z,27.91
2022-08-08T21:10:13.091Z,28.13
2022-08-08T21:12:44.548Z,28.06
2022-08-08T21:15:16.780Z,28.05
2022-08-08T21:18:05.549Z,28.06
2022-08-08T21:20:37.705Z,27.91
2022-08-08T21:23:09.292Z,28.36
2022-08-08T21:25:38.913Z,27.96
2022-08-08T21:28:15.036Z,28.25
2022-08-08T21:30:52.042Z,28.21
2022-08-08T21:33:22.078Z,28.41
2022-08-08T21:36:14.505Z,28.72
2022-08-08T21:38:43.516Z,28.83
2022-08-08T21:41:18.521Z,28.53
2022-08-08T21:44:04.302Z,29.00
2022-08-08T21:48:00.658Z,28.14
2022-08-08T21:49:23.162Z,28.40
2022-08-08T21:54:33.037Z,28.52
2022-08-08T21:55:03.469Z,28.40
2022-08-08T21:57:42.902Z,28.51
2022-08-08T22:00:26.191Z,28.15
2022-08-08T22:02:55.788Z,27.97
2022-08-08T22:05:25.290Z,28.10
2022-08-08T22:08:01.686Z,27.80
2022-08-08T22:10:32.528Z,27.42
2022-08-08T22:13:17.736Z,27.61
2022-08-08T22:15:59.487Z,27.35
2022-08-08T22:18:29.659Z,27.44
2022-08-08T22:21:01.576Z,27.50
2022-08-08T22:23:50.362Z,27.22
2022-08-08T22:26:28.754Z,27.36
2022-08-08T22:29:14.966Z,27.71
2022-08-08T22:31:58.214Z,27.73
2022-08-08T22:34:31.623Z,27.86
2022-08-08T22:37:01.080Z,27.78
2022-08-08T22:39:46.332Z,27.93
2022-08-08T22:42:23.901Z,27.91
2022-08-08T22:44:57.072Z,28.43
2022-08-08T22:47:37.556Z,28.36
2022-08-08T22:50:25.415Z,28.33
2022-08-08T22:54:15.753Z,28.58
2022-08-08T22:55:58.722Z,28.43
2022-08-08T22:58:30.865Z,29.03
2022-08-08T23:01:01.104Z,28.83
2022-08-08T23:03:52.557Z,29.01
2022-08-08T23:06:20.130Z,29.37
2022-08-08T23:08:55.576Z,29.24
2022-08-08T23:12:28.968Z,29.60
2022-08-08T23:14:21.139Z,29.62
2022-08-08T23:16:59.067Z,29.46
2022-08-08T23:19:30.897Z,29.67
2022-08-08T23:22:01.620Z,30.09
2022-08-08T23:24:36.330Z,29.90
2022-08-08T23:27:09.663Z,30.23
2022-08-08T23:29:39.318Z,29.80
2022-08-08T23:32:11.715Z,29.96
2022-08-08T23:34:49.586Z,30.45
2022-08-08T23:38:01.960Z,30.04
2022-08-08T23:40:22.052Z,30.24
2022-08-08T23:42:54.904Z,30.78
2022-08-08T23:49:03.021Z,30.85
2022-08-08T23:49:05.324Z,30.85
2022-08-08T23:51:03.182Z,30.80
2022-08-08T23:54:06.319Z,30.75
2022-08-08T23:56:23.839Z,30.85
2022-08-08T23:59:04.241Z,31.12
